createdAt,value
2018-11-13T00:00:25.649Z,95900.00
2018-11-13T00:02:55.496Z,95902.00
2018-11-13T00:05:25.382Z,95901.00
2018-11-13T00:07:54.756Z,95904.00
2018-11-13T00:10:24.068Z,95900.00
2018-11-13T00:12:53.418Z,95895.00
2018-11-13T00:15:22.798Z,95905.00
2018-11-13T00:17:52.126Z,95913.00
2018-11-13T00:20:21.760Z,95917.00
2018-11-13T00:22:51.112Z,95901.00
2018-11-13T00:25:21.238Z,95912.00
2018-11-13T00:27:50.598Z,95912.00
2018-11-13T00:30:21.799Z,95913.00
2018-11-13T00:32:51.583Z,95917.00
2018-11-13T00:35:21.848Z,95917.00
2018-11-13T00:37:52.454Z,95913.00
2018-11-13T00:40:21.847Z,95918.00
2018-11-13T00:42:51.323Z,95915.00
2018-11-13T00:45:20.738Z,95913.00
2018-11-13T00:47:50.096Z,95915.00
2018-11-13T00:50:20.574Z,95928.00
2018-11-13T00:52:50.339Z,95921.00
2018-11-13T00:55:19.825Z,95915.00
2018-11-13T00:57:50.541Z,95914.00
2018-11-13T01:00:21.013Z,95913.00
2018-11-13T01:02:50.331Z,95902.00
2018-11-13T01:05:20.890Z,95902.00
2018-11-13T01:07:51.210Z,95898.00
2018-11-13T01:10:21.342Z,95904.00
2018-11-13T01:12:52.915Z,95905.00
2018-11-13T01:15:22.221Z,95907.00
2018-11-13T01:17:51.568Z,95904.00
2018-11-13T01:20:20.920Z,95900.00
2018-11-13T01:22:50.703Z,95904.00
2018-11-13T01:25:20.003Z,95897.00
2018-11-13T01:27:49.413Z,95889.00
2018-11-13T01:30:18.804Z,95901.00
2018-11-13T01:32:48.212Z,95898.00
2018-11-13T01:35:18.624Z,95893.00
2018-11-13T01:37:48.088Z,95899.00
2018-11-13T01:40:20.677Z,95884.00
2018-11-13T01:42:50.310Z,95893.00
2018-11-13T01:45:20.566Z,95891.00
2018-11-13T01:47:49.887Z,95887.00
2018-11-13T01:50:19.556Z,95881.00
2018-11-13T01:52:48.968Z,95886.00
2018-11-13T01:55:18.485Z,95882.00
2018-11-13T01:57:48.126Z,95879.00
2018-11-13T02:00:20.062Z,95877.00
2018-11-13T02:02:50.924Z,95875.00
2018-11-13T02:05:21.583Z,95870.00
2018-11-13T02:07:52.614Z,95857.00
2018-11-13T02:10:22.406Z,95862.00
2018-11-13T02:12:52.668Z,95866.00
2018-11-13T02:15:22.599Z,95879.00
2018-11-13T02:17:52.161Z,95878.00
2018-11-13T02:20:22.671Z,95879.00
2018-11-13T02:22:52.196Z,95882.00
2018-11-13T02:25:21.896Z,95881.00
2018-11-13T02:27:51.362Z,95883.00
2018-11-13T02:30:22.148Z,95896.00
2018-11-13T02:32:51.718Z,95886.00
2018-11-13T02:35:21.365Z,95881.00
2018-11-13T02:37:50.807Z,95879.00
2018-11-13T02:40:20.115Z,95887.00
2018-11-13T02:42:50.449Z,95886.00
2018-11-13T02:45:20.539Z,95876.00
2018-11-13T02:47:50.927Z,95876.00
2018-11-13T02:50:21.394Z,95869.00
2018-11-13T02:52:50.927Z,95869.00
2018-11-13T02:55:20.228Z,95869.00
2018-11-13T02:57:49.635Z,95864.00
2018-11-13T03:00:20.430Z,95845.00
2018-11-13T03:02:50.146Z,95845.00
2018-11-13T03:05:20.581Z,95844.00
2018-11-13T03:07:50.904Z,95842.00
2018-11-13T03:10:20.986Z,95855.00
2018-11-13T03:12:50.339Z,95850.00
2018-11-13T03:15:20.599Z,95854.00
2018-11-13T03:17:50.058Z,95860.00
2018-11-13T03:20:20.383Z,95862.00
2018-11-13T03:22:50.298Z,95843.00
2018-11-13T03:25:20.784Z,95841.00
2018-11-13T03:27:50.142Z,95849.00
2018-11-13T03:30:24.182Z,95848.00
2018-11-13T03:32:54.311Z,95849.00
2018-11-13T03:35:23.626Z,95840.00
2018-11-13T03:37:52.976Z,95838.00
2018-11-13T03:40:22.406Z,95843.00
2018-11-13T03:42:51.816Z,95838.00
2018-11-13T03:45:21.215Z,95852.00
2018-11-13T03:47:50.688Z,95848.00
2018-11-13T03:50:21.403Z,95857.00
2018-11-13T03:52:50.873Z,95850.00
2018-11-13T03:55:21.066Z,95855.00
2018-11-13T03:57:50.920Z,95865.00
2018-11-13T04:00:22.455Z,95867.00
2018-11-13T04:02:51.917Z,95884.00
2018-11-13T04:05:21.933Z,95874.00
2018-11-13T04:07:53.673Z,95876.00
2018-11-13T04:10:23.775Z,95881.00
2018-11-13T04:12:53.189Z,95877.00
2018-11-13T04:15:24.435Z,95878.00
2018-11-13T04:17:54.155Z,95877.00
2018-11-13T04:20:24.046Z,95891.00
2018-11-13T04:22:53.490Z,95899.00
2018-11-13T04:25:22.866Z,95904.00
2018-11-13T04:27:52.192Z,95901.00
2018-11-13T04:30:21.520Z,95899.00
2018-11-13T04:32:50.912Z,95908.00
2018-11-13T04:35:20.258Z,95900.00
2018-11-13T04:37:49.649Z,95897.00
2018-11-13T04:40:20.494Z,95893.00
2018-11-13T04:42:51.149Z,95906.00
2018-11-13T04:45:22.396Z,95922.00
2018-11-13T04:47:52.215Z,95919.00
2018-11-13T04:50:22.631Z,95935.00
2018-11-13T04:52:52.046Z,95931.00
2018-11-13T04:55:21.330Z,95933.00
2018-11-13T04:57:51.539Z,95936.00
2018-11-13T05:00:23.113Z,95946.00
2018-11-13T05:02:52.505Z,95940.00
2018-11-13T05:05:22.926Z,95944.00
2018-11-13T05:07:53.676Z,95946.00
2018-11-13T05:10:23.629Z,95952.00
2018-11-13T05:12:53.023Z,95958.00
2018-11-13T05:15:22.523Z,95965.00
2018-11-13T05:17:51.901Z,95964.00
2018-11-13T05:20:21.267Z,95967.00
2018-11-13T05:22:51.064Z,95970.00
2018-11-13T05:25:21.249Z,95978.00
2018-11-13T05:27:51.200Z,95989.00
2018-11-13T05:30:21.863Z,95983.00
2018-11-13T05:32:51.564Z,95994.00
2018-11-13T05:35:21.898Z,96001.00
2018-11-13T05:37:51.388Z,96006.00
2018-11-13T05:40:23.140Z,96025.00
2018-11-13T05:42:52.552Z,96040.00
2018-11-13T05:45:23.187Z,96038.00
2018-11-13T05:47:52.518Z,96037.00
2018-11-13T05:50:21.902Z,96042.00
2018-11-13T05:52:53.149Z,96061.00
2018-11-13T05:55:22.533Z,96047.00
2018-11-13T05:57:52.064Z,96050.00
2018-11-13T06:00:31.316Z,96051.00
2018-11-13T06:03:01.392Z,96061.00
2018-11-13T06:05:31.154Z,96066.00
2018-11-13T06:08:00.561Z,96056.00
2018-11-13T06:10:29.927Z,96068.00
2018-11-13T06:12:59.228Z,96069.00
2018-11-13T06:15:28.571Z,96076.00
2018-11-13T06:17:57.961Z,96077.00
2018-11-13T06:20:27.387Z,96078.00
2018-11-13T06:22:56.773Z,96092.00
2018-11-13T06:25:26.099Z,96091.00
2018-11-13T06:27:55.492Z,96090.00
2018-11-13T06:30:25.767Z,96096.00
2018-11-13T06:32:55.197Z,96093.00
2018-11-13T06:35:24.600Z,96107.00
2018-11-13T06:37:53.891Z,96106.00
2018-11-13T06:40:23.329Z,96108.00
2018-11-13T06:42:52.660Z,96118.00
2018-11-13T06:45:23.232Z,96125.00
2018-11-13T06:47:52.905Z,96129.00
2018-11-13T06:50:22.316Z,96128.00
2018-11-13T06:52:51.811Z,96129.00
2018-11-13T06:55:31.013Z,96134.00
2018-11-13T06:58:00.345Z,96127.00
2018-11-13T07:00:29.819Z,96135.00
2018-11-13T07:02:59.191Z,96141.00
2018-11-13T07:05:28.982Z,96142.00
2018-11-13T07:07:58.331Z,96151.00
2018-11-13T07:10:28.906Z,96148.00
2018-11-13T07:12:58.812Z,96138.00
2018-11-13T07:15:29.541Z,96142.00
2018-11-13T07:18:01.222Z,96145.00
2018-11-13T07:20:32.140Z,96148.00
2018-11-13T07:23:01.669Z,96151.00
2018-11-13T07:25:31.054Z,96165.00
2018-11-13T07:28:00.444Z,96166.00
2018-11-13T07:30:29.822Z,96167.00
2018-11-13T07:32:59.155Z,96172.00
2018-11-13T07:35:28.498Z,96170.00
2018-11-13T07:37:58.987Z,96176.00
2018-11-13T07:40:28.427Z,96172.00
2018-11-13T07:42:57.892Z,96166.00
2018-11-13T07:45:27.260Z,96169.00
2018-11-13T07:47:56.708Z,96168.00
2018-11-13T07:50:26.000Z,96177.00
2018-11-13T07:52:55.347Z,96182.00
2018-11-13T07:55:24.699Z,96184.00
2018-11-13T07:57:54.101Z,96197.00
2018-11-13T08:00:24.527Z,96189.00
2018-11-13T08:02:55.269Z,96191.00
2018-11-13T08:05:25.794Z,96197.00
2018-11-13T08:07:55.133Z,96191.00
2018-11-13T08:10:24.501Z,96197.00
2018-11-13T08:12:54.025Z,96205.00
2018-11-13T08:15:23.442Z,96206.00
2018-11-13T08:17:52.808Z,96208.00
2018-11-13T08:20:22.148Z,96218.00
2018-11-13T08:22:52.059Z,96214.00
2018-11-13T08:25:21.510Z,96220.00
2018-11-13T08:27:51.575Z,96223.00
2018-11-13T08:30:20.931Z,96236.00
2018-11-13T08:32:50.820Z,96248.00
2018-11-13T08:35:20.168Z,96245.00
2018-11-13T08:37:50.521Z,96243.00
2018-11-13T08:40:20.246Z,96252.00
2018-11-13T08:42:50.226Z,96260.00
2018-11-13T08:45:19.661Z,96259.00
2018-11-13T08:47:49.094Z,96262.00
2018-11-13T08:50:18.474Z,96271.00
2018-11-13T08:52:48.085Z,96271.00
2018-11-13T08:55:18.022Z,96277.00
2018-11-13T08:57:47.457Z,96276.00
2018-11-13T09:00:18.199Z,96286.00
2018-11-13T09:02:48.350Z,96279.00
2018-11-13T09:05:18.318Z,96271.00
2018-11-13T09:07:47.595Z,96279.00
2018-11-13T09:10:18.461Z,96281.00
2018-11-13T09:12:48.683Z,96286.00
2018-11-13T09:15:19.442Z,96295.00
2018-11-13T09:17:48.949Z,96275.00
2018-11-13T09:20:19.556Z,96283.00
2018-11-13T09:22:49.043Z,96286.00
2018-11-13T09:25:19.795Z,96280.00
2018-11-13T09:27:49.285Z,96279.00
2018-11-13T09:30:20.114Z,96284.00
2018-11-13T09:32:49.883Z,96285.00
2018-11-13T09:35:19.852Z,96285.00
2018-11-13T09:37:49.304Z,96294.00
2018-11-13T09:40:21.094Z,96300.00
2018-11-13T09:42:51.863Z,96298.00
2018-11-13T09:45:21.288Z,96300.00
2018-11-13T09:47:51.480Z,96312.00
2018-11-13T09:50:21.616Z,96315.00
2018-11-13T09:52:52.968Z,96313.00
2018-11-13T09:55:23.257Z,96315.00
2018-11-13T09:57:52.604Z,96321.00
2018-11-13T10:00:23.415Z,96330.00
2018-11-13T10:02:58.923Z,96324.00
2018-11-13T10:05:27.938Z,96340.00
2018-11-13T10:07:57.562Z,96348.00
2018-11-13T10:10:27.527Z,96357.00
2018-11-13T10:12:56.880Z,96356.00
2018-11-13T10:15:27.700Z,96382.00
2018-11-13T10:17:57.168Z,96378.00
2018-11-13T10:20:26.429Z,96374.00
2018-11-13T10:22:56.867Z,96370.00
2018-11-13T10:25:26.297Z,96375.00
2018-11-13T10:27:55.677Z,96393.00
2018-11-13T10:30:25.500Z,96388.00
2018-11-13T10:32:55.501Z,96381.00
2018-11-13T10:35:26.197Z,96382.00
2018-11-13T10:37:55.544Z,96387.00
2018-11-13T10:40:25.031Z,96392.00
2018-11-13T10:42:56.027Z,96396.00
2018-11-13T10:45:27.725Z,96395.00
2018-11-13T10:47:57.336Z,96410.00
2018-11-13T10:50:27.347Z,96407.00
2018-11-13T10:52:56.825Z,96398.00
2018-11-13T10:55:26.230Z,96406.00
2018-11-13T10:57:55.583Z,96422.00
2018-11-13T11:02:37.590Z,96418.00
2018-11-13T11:05:10.430Z,96422.00
2018-11-13T11:07:41.487Z,96413.00
2018-11-13T11:10:10.900Z,96422.00
2018-11-13T11:12:40.766Z,96426.00
2018-11-13T11:15:11.208Z,96427.00
2018-11-13T11:17:40.746Z,96420.00
2018-11-13T11:20:12.467Z,96435.00
2018-11-13T11:22:42.399Z,96439.00
2018-11-13T11:25:12.850Z,96435.00
2018-11-13T11:27:42.298Z,96449.00
2018-11-13T11:30:14.274Z,96456.00
2018-11-13T11:32:44.667Z,96454.00
2018-11-13T11:35:14.067Z,96463.00
2018-11-13T11:37:43.675Z,96469.00
2018-11-13T11:40:13.661Z,96463.00
2018-11-13T11:42:43.223Z,96463.00
2018-11-13T11:45:13.999Z,96468.00
2018-11-13T11:47:43.896Z,96470.00
2018-11-13T11:50:14.220Z,96484.00
2018-11-13T11:52:43.613Z,96471.00
2018-11-13T11:55:13.646Z,96490.00
2018-11-13T11:57:43.029Z,96484.00
2018-11-13T12:00:16.157Z,96495.00
2018-11-13T12:02:45.714Z,96492.00
2018-11-13T12:05:15.066Z,96500.00
2018-11-13T12:07:44.530Z,96489.00
2018-11-13T12:10:14.372Z,96492.00
2018-11-13T12:12:43.753Z,96500.00
2018-11-13T12:15:13.990Z,96494.00
2018-11-13T12:17:44.308Z,96504.00
2018-11-13T12:20:15.274Z,96495.00
2018-11-13T12:22:44.840Z,96488.00
2018-11-13T12:25:17.438Z,96494.00
2018-11-13T12:27:47.216Z,96494.00
2018-11-13T12:30:18.606Z,96486.00
2018-11-13T12:32:49.403Z,96479.00
2018-11-13T12:35:19.882Z,96479.00
2018-11-13T12:37:49.442Z,96480.00
2018-11-13T12:40:21.125Z,96472.00
2018-11-13T12:42:51.446Z,96480.00
2018-11-13T12:45:21.398Z,96472.00
2018-11-13T12:47:50.904Z,96473.00
2018-11-13T12:50:20.973Z,96476.00
2018-11-13T12:52:50.545Z,96484.00
2018-11-13T12:55:21.509Z,96489.00
2018-11-13T12:57:52.271Z,96480.00
2018-11-13T13:00:23.822Z,96480.00
2018-11-13T13:02:53.273Z,96493.00
2018-11-13T13:05:23.897Z,96488.00
2018-11-13T13:07:56.125Z,96496.00
2018-11-13T13:10:25.867Z,96507.00
2018-11-13T13:12:55.877Z,96499.00
2018-11-13T13:15:25.271Z,96512.00
2018-11-13T13:17:54.667Z,96509.00
2018-11-13T13:20:26.009Z,96509.00
2018-11-13T13:22:56.217Z,96504.00
2018-11-13T13:25:25.540Z,96510.00
2018-11-13T13:27:54.911Z,96506.00
2018-11-13T13:30:25.567Z,96513.00
2018-11-13T13:32:55.005Z,96516.00
2018-11-13T13:35:43.569Z,96499.00
2018-11-13T13:38:12.894Z,96503.00
2018-11-13T13:40:43.659Z,96515.00
2018-11-13T13:43:13.968Z,96515.00
2018-11-13T13:45:44.330Z,96526.00
2018-11-13T13:48:13.715Z,96531.00
2018-11-13T13:50:43.132Z,96525.00
2018-11-13T13:53:13.625Z,96543.00
2018-11-13T13:55:43.542Z,96549.00
2018-11-13T13:58:13.550Z,96556.00
2018-11-13T14:00:43.105Z,96562.00
2018-11-13T14:03:23.743Z,96572.00
2018-11-13T14:06:06.114Z,96572.00
2018-11-13T14:08:49.293Z,96560.00
2018-11-13T14:11:26.058Z,96565.00
2018-11-13T14:14:00.513Z,96578.00
2018-11-13T14:16:37.123Z,96577.00
2018-11-13T14:19:15.929Z,96575.00
2018-11-13T14:21:45.451Z,96583.00
2018-11-13T14:24:14.762Z,96594.00
2018-11-13T14:26:51.066Z,96600.00
2018-11-13T14:29:24.945Z,96597.00
2018-11-13T14:31:54.358Z,96603.00
2018-11-13T14:34:23.695Z,96600.00
2018-11-13T14:36:53.073Z,96602.00
2018-11-13T14:39:22.518Z,96596.00
2018-11-13T14:41:51.975Z,96605.00
2018-11-13T14:44:21.267Z,96613.00
2018-11-13T14:46:51.229Z,96598.00
2018-11-13T14:49:20.571Z,96617.00
2018-11-13T14:51:49.985Z,96612.00
2018-11-13T14:54:19.430Z,96614.00
2018-11-13T14:56:48.805Z,96615.00
2018-11-13T14:59:18.143Z,96617.00
2018-11-13T15:01:49.021Z,96623.00
2018-11-13T15:04:18.522Z,96625.00
2018-11-13T15:06:47.852Z,96623.00
2018-11-13T15:09:17.246Z,96623.00
2018-11-13T15:11:46.583Z,96639.00
2018-11-13T15:14:16.175Z,96637.00
2018-11-13T15:16:45.820Z,96638.00
2018-11-13T15:19:15.174Z,96637.00
2018-11-13T15:21:44.573Z,96636.00
2018-11-13T15:24:14.709Z,96654.00
2018-11-13T15:26:44.078Z,96655.00
2018-11-13T15:29:14.066Z,96647.00
2018-11-13T15:31:43.444Z,96640.00
2018-11-13T15:34:13.147Z,96652.00
2018-11-13T15:36:42.624Z,96652.00
2018-11-13T15:39:13.687Z,96648.00
2018-11-13T15:41:43.523Z,96657.00
2018-11-13T15:44:13.472Z,96672.00
2018-11-13T15:46:43.013Z,96671.00
2018-11-13T15:49:12.536Z,96684.00
2018-11-13T15:51:42.225Z,96682.00
2018-11-13T15:54:11.530Z,96691.00
2018-11-13T15:56:40.880Z,96698.00
2018-11-13T15:59:10.347Z,96700.00
2018-11-13T16:01:40.067Z,96704.00
2018-11-13T16:04:09.384Z,96695.00
2018-11-13T16:06:39.295Z,96716.00
2018-11-13T16:09:12.245Z,96707.00
2018-11-13T16:11:41.669Z,96705.00
2018-11-13T16:14:11.279Z,96704.00
2018-11-13T16:16:41.035Z,96706.00
2018-11-13T16:19:10.395Z,96710.00
2018-11-13T16:21:39.813Z,96708.00
2018-11-13T16:24:09.106Z,96728.00
2018-11-13T16:26:38.466Z,96712.00
2018-11-13T16:29:07.855Z,96724.00
2018-11-13T16:31:37.171Z,96733.00
2018-11-13T16:34:06.711Z,96731.00
2018-11-13T16:36:36.157Z,96741.00
2018-11-13T16:39:10.640Z,96733.00
2018-11-13T16:41:40.261Z,96735.00
2018-11-13T16:44:09.647Z,96731.00
2018-11-13T16:46:39.044Z,96734.00
2018-11-13T16:49:08.848Z,96733.00
2018-11-13T16:51:38.232Z,96746.00
2018-11-13T16:54:08.098Z,96735.00
2018-11-13T16:56:42.747Z,96732.00
2018-11-13T16:59:12.497Z,96734.00
2018-11-13T17:01:41.900Z,96733.00
2018-11-13T17:04:11.760Z,96745.00
2018-11-13T17:06:41.884Z,96742.00
2018-11-13T17:09:12.120Z,96743.00
2018-11-13T17:11:41.800Z,96753.00
2018-11-13T17:14:11.255Z,96742.00
2018-11-13T17:16:40.943Z,96745.00
2018-11-13T17:19:10.267Z,96749.00
2018-11-13T17:21:39.625Z,96751.00
2018-11-13T17:24:08.976Z,96753.00
2018-11-13T17:26:38.394Z,96763.00
2018-11-13T17:29:07.818Z,96759.00
2018-11-13T17:31:37.291Z,96759.00
2018-11-13T17:34:06.646Z,96762.00
2018-11-13T17:36:36.938Z,96766.00
2018-11-13T17:39:12.445Z,96759.00
2018-11-13T17:41:42.202Z,96763.00
2018-11-13T17:44:11.947Z,96757.00
2018-11-13T17:46:41.352Z,96770.00
2018-11-13T17:49:10.683Z,96766.00
2018-11-13T17:51:40.092Z,96757.00
2018-11-13T17:54:09.459Z,96765.00
2018-11-13T17:56:39.855Z,96756.00
2018-11-13T17:59:09.227Z,96744.00
2018-11-13T18:01:40.475Z,96752.00
2018-11-13T18:04:14.594Z,96750.00
2018-11-13T18:06:44.108Z,96755.00
2018-11-13T18:09:14.962Z,96748.00
2018-11-13T18:11:44.423Z,96748.00
2018-11-13T18:14:13.863Z,96758.00
2018-11-13T18:16:44.197Z,96756.00
2018-11-13T18:19:13.648Z,96756.00
2018-11-13T18:21:43.126Z,96752.00
2018-11-13T18:24:12.949Z,96752.00
2018-11-13T18:26:42.523Z,96751.00
2018-11-13T18:29:11.864Z,96757.00
2018-11-13T18:31:42.616Z,96762.00
2018-11-13T18:34:12.980Z,96765.00
2018-11-13T18:36:42.779Z,96775.00
2018-11-13T18:39:14.646Z,96774.00
2018-11-13T18:41:44.315Z,96778.00
2018-11-13T18:44:14.942Z,96775.00
2018-11-13T18:46:44.746Z,96770.00
2018-11-13T18:49:15.347Z,96763.00
2018-11-13T18:51:45.426Z,96758.00
2018-11-13T18:54:22.972Z,96756.00
2018-11-13T18:56:52.835Z,96765.00
2018-11-13T18:59:29.666Z,96774.00
2018-11-13T19:02:04.996Z,96775.00
2018-11-13T19:04:34.517Z,96777.00
2018-11-13T19:07:04.212Z,96790.00
2018-11-13T19:09:34.947Z,96788.00
2018-11-13T19:12:04.941Z,96793.00
2018-11-13T19:14:35.119Z,96795.00
2018-11-13T19:17:04.765Z,96789.00
2018-11-13T19:19:34.286Z,96798.00
2018-11-13T19:22:04.310Z,96802.00
2018-11-13T19:24:33.865Z,96804.00
2018-11-13T19:27:03.383Z,96794.00
2018-11-13T19:29:32.853Z,96792.00
2018-11-13T19:32:02.898Z,96793.00
2018-11-13T19:34:32.447Z,96782.00
2018-11-13T19:37:02.035Z,96790.00
2018-11-13T19:39:31.661Z,96801.00
2018-11-13T19:42:01.097Z,96792.00
2018-11-13T19:44:30.631Z,96793.00
2018-11-13T19:47:00.157Z,96798.00
2018-11-13T19:49:29.581Z,96800.00
2018-11-13T19:51:59.567Z,96800.00
2018-11-13T19:54:29.880Z,96806.00
2018-11-13T19:57:00.465Z,96811.00
2018-11-13T19:59:31.642Z,96804.00
2018-11-13T20:02:01.432Z,96810.00
2018-11-13T20:04:30.872Z,96811.00
2018-11-13T20:07:00.249Z,96816.00
2018-11-13T20:09:29.917Z,96816.00
2018-11-13T20:11:59.258Z,96815.00
2018-11-13T20:14:28.766Z,96814.00
2018-11-13T20:16:58.157Z,96813.00
2018-11-13T20:19:27.537Z,96808.00
2018-11-13T20:21:56.927Z,96812.00
2018-11-13T20:24:26.312Z,96813.00
2018-11-13T20:26:55.862Z,96806.00
2018-11-13T20:29:25.420Z,96823.00
2018-11-13T20:31:54.947Z,96822.00
2018-11-13T20:34:24.998Z,96812.00
2018-11-13T20:36:54.390Z,96814.00
2018-11-13T20:39:23.791Z,96804.00
2018-11-13T20:41:53.230Z,96814.00
2018-11-13T20:44:22.626Z,96815.00
2018-11-13T20:46:51.990Z,96816.00
2018-11-13T20:49:21.317Z,96827.00
2018-11-13T20:51:50.995Z,96830.00
2018-11-13T20:54:20.332Z,96830.00
2018-11-13T20:56:49.757Z,96823.00
2018-11-13T20:59:19.101Z,96819.00
2018-11-13T21:01:48.591Z,96817.00
2018-11-13T21:04:18.037Z,96818.00
2018-11-13T21:06:47.434Z,96822.00
2018-11-13T21:09:16.784Z,96825.00
2018-11-13T21:11:46.219Z,96825.00
2018-11-13T21:14:15.671Z,96817.00
2018-11-13T21:16:45.175Z,96820.00
2018-11-13T21:19:15.115Z,96824.00
2018-11-13T21:21:44.522Z,96823.00
2018-11-13T21:24:13.893Z,96828.00
2018-11-13T21:26:43.320Z,96813.00
2018-11-13T21:29:12.766Z,96812.00
2018-11-13T21:31:42.168Z,96821.00
2018-11-13T21:34:11.505Z,96828.00
2018-11-13T21:36:40.849Z,96807.00
2018-11-13T21:39:13.123Z,96806.00
2018-11-13T21:41:42.542Z,96818.00
2018-11-13T21:44:12.095Z,96822.00
2018-11-13T21:46:41.453Z,96829.00
2018-11-13T21:49:10.866Z,96825.00
2018-11-13T21:51:40.274Z,96825.00
2018-11-13T21:54:09.660Z,96836.00
2018-11-13T21:56:39.033Z,96835.00
2018-11-13T21:59:08.390Z,96837.00
2018-11-13T22:01:37.852Z,96834.00
2018-11-13T22:04:07.344Z,96846.00
2018-11-13T22:06:36.825Z,96838.00
2018-11-13T22:09:10.173Z,96844.00
2018-11-13T22:11:39.547Z,96837.00
2018-11-13T22:14:08.921Z,96840.00
2018-11-13T22:16:38.391Z,96839.00
2018-11-13T22:19:07.739Z,96842.00
2018-11-13T22:21:37.085Z,96841.00
2018-11-13T22:24:06.837Z,96834.00
2018-11-13T22:26:36.136Z,96845.00
2018-11-13T22:29:05.858Z,96843.00
2018-11-13T22:31:35.213Z,96847.00
2018-11-13T22:34:04.683Z,96844.00
2018-11-13T22:36:34.249Z,96846.00
2018-11-13T22:39:04.288Z,96843.00
2018-11-13T22:41:33.612Z,96850.00
2018-11-13T22:44:02.944Z,96846.00
2018-11-13T22:46:32.285Z,96849.00
2018-11-13T22:49:01.650Z,96847.00
2018-11-13T22:51:31.366Z,96847.00
2018-11-13T22:54:00.866Z,96852.00
2018-11-13T22:56:30.208Z,96854.00
2018-11-13T22:58:59.565Z,96857.00
2018-11-13T23:01:29.275Z,96848.00
2018-11-13T23:03:58.634Z,96853.00
2018-11-13T23:06:27.949Z,96855.00
2018-11-13T23:08:57.362Z,96855.00
2018-11-13T23:11:26.760Z,96861.00
2018-11-13T23:13:56.092Z,96855.00
2018-11-13T23:16:25.528Z,96849.00
2018-11-13T23:18:54.891Z,96843.00
2018-11-13T23:21:24.294Z,96845.00
2018-11-13T23:23:53.643Z,96838.00
2018-11-13T23:26:23.020Z,96840.00
2018-11-13T23:28:52.453Z,96844.00
2018-11-13T23:31:21.820Z,96835.00
2018-11-13T23:33:51.990Z,96841.00
2018-11-13T23:36:21.835Z,96845.00
2018-11-13T23:38:52.647Z,96840.00
2018-11-13T23:41:21.967Z,96827.00
2018-11-13T23:43:51.348Z,96836.00
2018-11-13T23:46:20.679Z,96829.00
2018-11-13T23:48:50.125Z,96832.00
2018-11-13T23:51:20.619Z,96833.00
2018-11-13T23:53:50.410Z,96830.00
2018-11-13T23:56:19.861Z,96828.00
2018-11-13T23:58:49.171Z,96824.00
